createdAt,value
2023-05-14T00:01:58.532Z,100.00
2023-05-14T00:04:25.127Z,100.00
2023-05-14T00:06:51.569Z,100.00
2023-05-14T00:09:18.116Z,100.00
2023-05-14T00:11:44.604Z,100.00
2023-05-14T00:14:11.047Z,100.00
2023-05-14T00:16:38.029Z,100.00
2023-05-14T00:19:10.034Z,100.00
2023-05-14T00:21:38.244Z,100.00
2023-05-14T00:24:05.088Z,100.00
2023-05-14T00:26:31.501Z,100.00
2023-05-14T00:28:57.946Z,100.00
2023-05-14T00:31:24.516Z,100.00
2023-05-14T00:33:50.940Z,100.00
2023-05-14T00:36:17.416Z,100.00
2023-05-14T00:38:43.850Z,100.00
2023-05-14T00:41:10.419Z,100.00
2023-05-14T00:43:36.867Z,100.00
2023-05-14T00:46:03.695Z,100.00
2023-05-14T00:48:30.420Z,100.00
2023-05-14T00:50:57.031Z,100.00
2023-05-14T00:53:23.553Z,100.00
2023-05-14T00:55:50.569Z,100.00
2023-05-14T00:58:19.170Z,100.00
2023-05-14T01:00:45.796Z,100.00
2023-05-14T01:03:12.333Z,100.00
2023-05-14T01:05:57.364Z,100.00
2023-05-14T01:08:40.461Z,100.00
2023-05-14T01:11:13.935Z,100.00
2023-05-14T01:13:52.661Z,100.00
2023-05-14T01:16:20.062Z,100.00
2023-05-14T01:18:50.840Z,100.00
2023-05-14T01:21:24.994Z,100.00
2023-05-14T01:23:51.406Z,100.00
2023-05-14T01:26:17.908Z,100.00
2023-05-14T01:28:45.336Z,100.00
2023-05-14T01:31:18.528Z,100.00
2023-05-14T01:33:48.362Z,100.00
2023-05-14T01:36:15.321Z,100.00
2023-05-14T01:38:45.631Z,100.00
2023-05-14T01:41:13.772Z,100.00
2023-05-14T01:43:41.021Z,100.00
2023-05-14T01:46:07.534Z,100.00
2023-05-14T01:48:33.980Z,100.00
2023-05-14T01:51:00.387Z,100.00
2023-05-14T01:53:27.873Z,100.00
2023-05-14T01:55:54.286Z,100.00
2023-05-14T01:58:20.970Z,100.00
2023-05-14T02:00:47.431Z,100.00
2023-05-14T02:03:14.246Z,100.00
2023-05-14T02:05:41.189Z,100.00
2023-05-14T02:08:16.479Z,100.00
2023-05-14T02:10:43.061Z,100.00
2023-05-14T02:13:09.847Z,100.00
2023-05-14T02:15:36.333Z,100.00
2023-05-14T02:18:03.070Z,100.00
2023-05-14T02:20:29.788Z,100.00
2023-05-14T02:22:58.505Z,100.00
2023-05-14T02:25:24.972Z,100.00
2023-05-14T02:27:51.674Z,100.00
2023-05-14T02:30:18.347Z,100.00
2023-05-14T02:32:44.864Z,100.00
2023-05-14T02:35:11.533Z,100.00
2023-05-14T02:37:37.997Z,100.00
2023-05-14T02:40:05.039Z,100.00
2023-05-14T02:42:32.149Z,100.00
2023-05-14T02:44:58.968Z,100.00
2023-05-14T02:47:25.657Z,100.00
2023-05-14T02:49:52.393Z,100.00
2023-05-14T02:52:18.964Z,100.00
2023-05-14T02:54:45.918Z,100.00
2023-05-14T02:57:12.768Z,100.00
2023-05-14T02:59:39.252Z,100.00
2023-05-14T03:02:06.311Z,100.00
2023-05-14T03:04:33.403Z,100.00
2023-05-14T03:06:59.843Z,100.00
2023-05-14T03:09:26.513Z,100.00
2023-05-14T03:11:52.981Z,100.00
2023-05-14T03:14:19.466Z,100.00
2023-05-14T03:16:46.487Z,100.00
2023-05-14T03:19:13.366Z,100.00
2023-05-14T03:21:40.158Z,100.00
2023-05-14T03:24:07.255Z,100.00
2023-05-14T03:26:33.992Z,100.00
2023-05-14T03:29:00.909Z,100.00
2023-05-14T03:31:27.927Z,100.00
2023-05-14T03:33:54.622Z,100.00
2023-05-14T03:36:21.260Z,100.00
2023-05-14T03:39:24.527Z,100.00
2023-05-14T03:42:14.025Z,100.00
2023-05-14T03:44:40.775Z,100.00
2023-05-14T03:47:07.302Z,100.00
2023-05-14T03:49:33.777Z,100.00
2023-05-14T03:52:00.257Z,100.00
2023-05-14T03:54:27.255Z,100.00
2023-05-14T03:56:53.688Z,100.00
2023-05-14T03:59:20.248Z,100.00
2023-05-14T04:01:46.739Z,100.00
2023-05-14T04:04:13.593Z,100.00
2023-05-14T04:06:40.336Z,100.00
2023-05-14T04:09:06.778Z,100.00
2023-05-14T04:11:33.190Z,100.00
2023-05-14T04:13:59.645Z,100.00
2023-05-14T04:16:26.243Z,100.00
2023-05-14T04:18:52.751Z,100.00
2023-05-14T04:21:19.267Z,100.00
2023-05-14T04:23:45.935Z,100.00
2023-05-14T04:26:12.398Z,100.00
2023-05-14T04:28:38.825Z,100.00
2023-05-14T04:31:05.533Z,100.00
2023-05-14T04:33:31.932Z,100.00
2023-05-14T04:35:58.335Z,100.00
2023-05-14T04:38:24.725Z,100.00
2023-05-14T04:40:51.112Z,100.00
2023-05-14T04:43:17.724Z,100.00
2023-05-14T04:45:44.209Z,100.00
2023-05-14T04:48:10.746Z,100.00
2023-05-14T04:50:37.264Z,100.00
2023-05-14T04:53:03.718Z,100.00
2023-05-14T04:55:30.336Z,100.00
2023-05-14T04:57:56.818Z,100.00
2023-05-14T05:00:23.493Z,100.00
2023-05-14T05:02:50.140Z,100.00
2023-05-14T05:05:16.768Z,100.00
2023-05-14T05:07:43.183Z,100.00
2023-05-14T05:10:09.875Z,100.00
2023-05-14T05:12:36.306Z,98.13
2023-05-14T05:15:02.750Z,96.17
2023-05-14T05:17:29.956Z,95.02
2023-05-14T05:19:56.484Z,96.04
2023-05-14T05:22:24.223Z,95.75
2023-05-14T05:24:50.671Z,94.70
2023-05-14T05:27:17.199Z,92.10
2023-05-14T05:29:46.585Z,91.08
2023-05-14T05:32:13.197Z,92.41
2023-05-14T05:34:41.566Z,89.97
2023-05-14T05:37:09.237Z,85.76
2023-05-14T05:39:35.689Z,81.15
2023-05-14T05:42:02.740Z,74.53
2023-05-14T05:44:29.223Z,68.10
2023-05-14T05:46:57.258Z,63.34
2023-05-14T05:49:23.997Z,59.13
2023-05-14T05:51:50.617Z,55.21
2023-05-14T05:54:17.058Z,55.26
2023-05-14T05:56:43.575Z,52.92
2023-05-14T05:59:10.055Z,54.97
2023-05-14T06:01:36.696Z,53.71
2023-05-14T06:04:04.492Z,51.90
2023-05-14T06:06:32.647Z,50.51
2023-05-14T06:08:59.116Z,51.85
2023-05-14T06:11:25.609Z,47.47
2023-05-14T06:13:52.144Z,49.25
2023-05-14T06:16:18.841Z,53.20
2023-05-14T06:18:45.591Z,57.09
2023-05-14T06:21:12.057Z,58.10
2023-05-14T06:23:38.488Z,62.17
2023-05-14T06:26:04.907Z,63.84
2023-05-14T06:28:31.347Z,64.98
2023-05-14T06:30:58.994Z,66.72
2023-05-14T06:33:30.707Z,70.97
2023-05-14T06:35:59.618Z,69.77
2023-05-14T06:38:26.116Z,67.81
2023-05-14T06:40:55.288Z,65.96
2023-05-14T06:43:22.286Z,65.63
2023-05-14T06:45:52.127Z,66.90
2023-05-14T06:48:19.386Z,69.18
2023-05-14T06:50:47.543Z,67.15
2023-05-14T06:53:14.552Z,66.23
2023-05-14T06:55:41.346Z,68.09
2023-05-14T06:58:08.827Z,62.84
2023-05-14T07:00:35.257Z,64.06
2023-05-14T07:03:01.748Z,61.68
2023-05-14T07:05:28.242Z,59.31
2023-05-14T07:07:54.734Z,55.96
2023-05-14T07:10:21.369Z,56.67
2023-05-14T07:12:49.091Z,58.29
2023-05-14T07:15:15.813Z,58.38
2023-05-14T07:17:42.304Z,58.97
2023-05-14T07:20:09.371Z,59.27
2023-05-14T07:22:35.856Z,58.22
2023-05-14T07:25:02.902Z,57.12
2023-05-14T07:27:32.651Z,57.47
2023-05-14T07:29:59.058Z,59.30
2023-05-14T07:32:25.593Z,60.61
2023-05-14T07:34:52.041Z,59.58
2023-05-14T07:37:18.795Z,61.22
2023-05-14T07:39:45.240Z,63.86
2023-05-14T07:42:15.181Z,63.67
2023-05-14T07:44:45.997Z,61.69
2023-05-14T07:47:12.446Z,62.47
2023-05-14T07:49:38.931Z,63.66
2023-05-14T07:52:05.637Z,64.51
2023-05-14T07:54:32.094Z,64.82
2023-05-14T07:56:58.507Z,66.33
2023-05-14T07:59:24.970Z,67.51
2023-05-14T08:01:51.408Z,68.81
2023-05-14T08:04:18.117Z,69.74
2023-05-14T08:06:44.686Z,67.48
2023-05-14T08:09:11.062Z,68.29
2023-05-14T08:11:37.530Z,68.42
2023-05-14T08:14:04.014Z,68.34
2023-05-14T08:16:30.455Z,68.48
2023-05-14T08:18:56.924Z,66.98
2023-05-14T08:21:23.378Z,66.64
2023-05-14T08:23:49.788Z,65.96
2023-05-14T08:26:16.228Z,68.55
2023-05-14T08:28:42.684Z,66.84
2023-05-14T08:31:09.172Z,69.08
2023-05-14T08:33:35.693Z,68.59
2023-05-14T08:36:02.097Z,69.23
2023-05-14T08:38:28.496Z,70.19
2023-05-14T08:40:59.643Z,69.89
2023-05-14T08:43:29.262Z,70.77
2023-05-14T08:46:00.092Z,71.88
2023-05-14T08:48:33.500Z,72.38
2023-05-14T08:51:01.460Z,72.98
2023-05-14T08:53:27.894Z,73.76
2023-05-14T08:55:54.591Z,73.67
2023-05-14T08:58:21.288Z,75.88
2023-05-14T09:00:47.763Z,71.62
2023-05-14T09:03:14.988Z,71.43
2023-05-14T09:05:41.937Z,75.11
2023-05-14T09:08:08.424Z,72.08
2023-05-14T09:10:34.839Z,72.65
2023-05-14T09:13:01.274Z,71.51
2023-05-14T09:15:29.070Z,72.25
2023-05-14T09:17:56.485Z,71.58
2023-05-14T09:20:24.702Z,70.88
2023-05-14T09:22:54.745Z,68.11
2023-05-14T09:25:27.491Z,68.26
2023-05-14T09:27:56.190Z,67.62
2023-05-14T09:30:26.556Z,67.58
2023-05-14T09:32:54.711Z,67.44
2023-05-14T09:35:24.966Z,66.19
2023-05-14T09:37:53.556Z,67.21
2023-05-14T09:40:22.393Z,69.07
2023-05-14T09:42:49.667Z,68.88
2023-05-14T09:45:16.935Z,65.24
2023-05-14T09:47:45.024Z,66.04
2023-05-14T09:50:11.849Z,65.59
2023-05-14T09:52:38.922Z,65.68
2023-05-14T09:55:06.314Z,64.70
2023-05-14T09:57:33.556Z,64.33
2023-05-14T10:00:00.372Z,65.15
2023-05-14T10:02:41.154Z,67.48
2023-05-14T10:05:08.309Z,67.39
2023-05-14T10:07:48.035Z,68.81
2023-05-14T10:10:18.402Z,67.24
2023-05-14T10:12:52.779Z,67.27
2023-05-14T10:15:42.436Z,66.38
2023-05-14T10:18:16.257Z,66.81
2023-05-14T10:20:44.027Z,67.21
2023-05-14T10:23:11.236Z,65.37
2023-05-14T10:25:41.104Z,66.30
2023-05-14T10:28:07.678Z,66.21
2023-05-14T10:30:34.082Z,67.00
2023-05-14T10:33:07.594Z,67.91
2023-05-14T10:36:05.054Z,66.75
2023-05-14T10:38:36.847Z,66.09
2023-05-14T10:41:05.305Z,64.65
2023-05-14T10:43:39.673Z,64.90
2023-05-14T10:46:07.746Z,63.88
2023-05-14T10:48:34.689Z,63.13
2023-05-14T10:51:02.712Z,62.13
2023-05-14T10:53:33.629Z,64.57
2023-05-14T10:56:09.689Z,63.58
2023-05-14T10:58:38.316Z,62.96
2023-05-14T11:01:07.342Z,62.61
2023-05-14T11:03:40.759Z,61.32
2023-05-14T11:06:11.002Z,62.52
2023-05-14T11:08:38.581Z,61.81
2023-05-14T11:11:06.100Z,59.85
2023-05-14T11:13:34.441Z,58.70
2023-05-14T11:16:08.715Z,60.26
2023-05-14T11:18:51.325Z,59.86
2023-05-14T11:21:17.880Z,60.25
2023-05-14T11:23:46.749Z,57.72
2023-05-14T11:26:13.375Z,57.39
2023-05-14T11:28:40.241Z,57.28
2023-05-14T11:31:06.879Z,60.34
2023-05-14T11:33:33.354Z,57.10
2023-05-14T11:35:59.773Z,55.17
2023-05-14T11:38:26.558Z,53.12
2023-05-14T11:40:57.910Z,55.34
2023-05-14T11:43:25.177Z,54.70
2023-05-14T11:45:53.425Z,56.76
2023-05-14T11:48:20.888Z,55.86
2023-05-14T11:50:52.033Z,55.37
2023-05-14T11:53:25.465Z,53.43
2023-05-14T11:55:54.220Z,54.05
2023-05-14T11:58:21.566Z,54.70
2023-05-14T12:00:52.553Z,54.05
2023-05-14T12:03:26.812Z,55.41
2023-05-14T12:05:58.504Z,55.36
2023-05-14T12:08:30.217Z,55.70
2023-05-14T12:10:59.265Z,56.91
2023-05-14T12:13:27.874Z,55.75
2023-05-14T12:15:56.808Z,55.52
2023-05-14T12:18:31.463Z,56.40
2023-05-14T12:21:06.050Z,54.34
2023-05-14T12:23:33.261Z,54.54
2023-05-14T12:26:06.199Z,58.87
2023-05-14T12:28:35.318Z,54.76
2023-05-14T12:31:03.655Z,56.39
2023-05-14T12:33:30.169Z,55.77
2023-05-14T12:36:13.993Z,53.63
2023-05-14T12:38:47.884Z,53.31
2023-05-14T12:41:14.303Z,56.89
2023-05-14T12:43:44.964Z,53.11
2023-05-14T12:46:11.415Z,52.38
2023-05-14T12:48:37.854Z,53.98
2023-05-14T12:51:04.590Z,52.79
2023-05-14T12:53:31.020Z,52.42
2023-05-14T12:55:57.710Z,53.39
2023-05-14T12:58:24.268Z,57.26
2023-05-14T13:00:51.057Z,54.08
2023-05-14T13:03:17.687Z,54.37
2023-05-14T13:05:44.271Z,54.06
2023-05-14T13:08:10.781Z,53.87
2023-05-14T13:10:37.354Z,52.61
2023-05-14T13:13:03.871Z,52.07
2023-05-14T13:15:31.658Z,52.46
2023-05-14T13:17:58.182Z,53.14
2023-05-14T13:20:27.246Z,53.87
2023-05-14T13:22:53.707Z,52.77
2023-05-14T13:25:20.398Z,52.76
2023-05-14T13:27:46.848Z,51.16
2023-05-14T13:30:13.566Z,51.75
2023-05-14T13:32:42.168Z,54.72
2023-05-14T13:35:09.443Z,55.61
2023-05-14T13:37:36.389Z,54.59
2023-05-14T13:40:07.233Z,53.31
2023-05-14T13:42:34.249Z,55.44
2023-05-14T13:45:03.488Z,57.54
2023-05-14T13:47:30.177Z,55.54
2023-05-14T13:49:56.699Z,54.68
2023-05-14T13:52:23.199Z,56.84
2023-05-14T13:54:49.943Z,55.19
2023-05-14T13:57:16.446Z,55.08
2023-05-14T13:59:44.948Z,56.39
2023-05-14T14:02:11.403Z,55.12
2023-05-14T14:04:37.928Z,55.85
2023-05-14T14:07:04.801Z,56.43
2023-05-14T14:09:35.107Z,56.59
2023-05-14T14:12:03.838Z,56.72
2023-05-14T14:14:30.376Z,56.40
2023-05-14T14:16:56.830Z,57.12
2023-05-14T14:19:23.825Z,55.20
2023-05-14T14:24:17.623Z,54.55
2023-05-14T14:26:44.117Z,55.94
2023-05-14T14:29:10.574Z,56.12
2023-05-14T14:31:37.201Z,56.22
2023-05-14T14:34:03.728Z,56.14
2023-05-14T14:36:30.722Z,54.51
2023-05-14T14:38:57.198Z,55.83
2023-05-14T14:41:23.763Z,58.00
2023-05-14T14:43:50.237Z,55.27
2023-05-14T14:46:16.681Z,56.89
2023-05-14T14:48:44.001Z,57.54
2023-05-14T14:51:11.059Z,57.51
2023-05-14T14:53:39.699Z,56.49
2023-05-14T14:56:06.434Z,56.13
2023-05-14T14:58:33.020Z,56.11
2023-05-14T15:01:01.171Z,57.10
2023-05-14T15:03:29.218Z,55.29
2023-05-14T15:05:55.789Z,54.24
2023-05-14T15:08:30.085Z,55.04
2023-05-14T15:10:56.623Z,54.87
2023-05-14T15:13:23.280Z,55.07
2023-05-14T15:15:51.789Z,57.35
2023-05-14T15:18:18.483Z,57.16
2023-05-14T15:20:44.975Z,55.64
2023-05-14T15:23:11.702Z,57.60
2023-05-14T15:25:38.423Z,56.01
2023-05-14T15:28:07.334Z,56.18
2023-05-14T15:30:34.047Z,56.14
2023-05-14T15:33:00.895Z,54.76
2023-05-14T15:35:27.404Z,54.50
2023-05-14T15:37:57.337Z,54.93
2023-05-14T15:40:24.120Z,54.70
2023-05-14T15:42:50.737Z,55.54
2023-05-14T15:45:17.431Z,55.73
2023-05-14T15:47:45.110Z,57.07
2023-05-14T15:50:11.797Z,57.96
2023-05-14T15:52:39.147Z,57.97
2023-05-14T15:55:06.388Z,56.29
2023-05-14T15:57:33.039Z,57.31
2023-05-14T15:59:59.508Z,56.19
2023-05-14T16:02:26.024Z,56.30
2023-05-14T16:04:52.491Z,57.11
2023-05-14T16:07:18.968Z,57.00
2023-05-14T16:09:45.505Z,57.27
2023-05-14T16:12:12.462Z,56.41
2023-05-14T16:14:41.236Z,56.91
2023-05-14T16:17:08.600Z,57.12
2023-05-14T16:19:35.080Z,56.09
2023-05-14T16:22:01.515Z,54.93
2023-05-14T16:24:27.950Z,55.10
2023-05-14T16:29:21.593Z,54.23
2023-05-14T16:31:48.107Z,53.97
2023-05-14T16:34:14.612Z,52.53
2023-05-14T16:36:41.179Z,53.55
2023-05-14T16:39:08.550Z,53.57
2023-05-14T16:41:35.748Z,53.31
2023-05-14T16:44:02.547Z,53.75
2023-05-14T16:46:29.183Z,53.90
2023-05-14T16:48:56.130Z,55.24
2023-05-14T16:51:22.688Z,56.09
2023-05-14T16:53:49.143Z,56.40
2023-05-14T16:56:15.650Z,54.76
2023-05-14T16:58:42.140Z,56.29
2023-05-14T17:01:09.914Z,55.27
2023-05-14T17:03:36.798Z,55.71
2023-05-14T17:06:04.589Z,56.23
2023-05-14T17:08:33.546Z,56.64
2023-05-14T17:11:00.279Z,56.50
2023-05-14T17:13:26.702Z,57.12
2023-05-14T17:15:53.190Z,57.43
2023-05-14T17:18:19.742Z,57.25
2023-05-14T17:20:46.343Z,57.48
2023-05-14T17:23:12.970Z,57.20
2023-05-14T17:25:39.404Z,56.63
2023-05-14T17:28:06.123Z,57.67
2023-05-14T17:30:32.558Z,57.70
2023-05-14T17:32:59.068Z,57.25
2023-05-14T17:35:25.840Z,56.37
2023-05-14T17:37:52.500Z,57.41
2023-05-14T17:40:18.920Z,56.81
2023-05-14T17:42:45.486Z,57.33
2023-05-14T17:45:13.213Z,57.30
2023-05-14T17:47:39.806Z,58.11
2023-05-14T17:50:07.143Z,58.24
2023-05-14T17:52:33.618Z,58.80
2023-05-14T17:55:00.099Z,59.08
2023-05-14T17:57:27.040Z,59.53
2023-05-14T17:59:53.475Z,60.98
2023-05-14T18:02:19.923Z,61.36
2023-05-14T18:07:33.144Z,61.95
2023-05-14T18:09:59.542Z,62.02
2023-05-14T18:12:26.740Z,62.69
2023-05-14T18:14:54.252Z,62.93
2023-05-14T18:17:20.985Z,63.26
2023-05-14T18:19:47.658Z,64.18
2023-05-14T18:22:14.205Z,64.61
2023-05-14T18:24:40.795Z,65.83
2023-05-14T18:27:07.255Z,65.60
2023-05-14T18:29:33.688Z,65.90
2023-05-14T18:32:00.363Z,66.59
2023-05-14T18:34:26.811Z,66.48
2023-05-14T18:36:53.243Z,66.72
2023-05-14T18:39:19.723Z,68.82
2023-05-14T18:41:46.138Z,70.18
2023-05-14T18:44:12.823Z,71.76
2023-05-14T18:46:39.463Z,72.35
2023-05-14T18:49:06.067Z,73.11
2023-05-14T18:51:32.503Z,73.11
2023-05-14T18:53:59.041Z,73.82
2023-05-14T18:56:25.791Z,74.45
2023-05-14T18:58:53.628Z,74.55
2023-05-14T19:01:21.230Z,74.60
2023-05-14T19:03:47.877Z,75.30
2023-05-14T19:06:14.400Z,74.39
2023-05-14T19:08:41.555Z,74.79
2023-05-14T19:11:08.046Z,74.78
2023-05-14T19:13:34.484Z,75.00
2023-05-14T19:16:00.985Z,74.14
2023-05-14T19:18:27.471Z,74.74
2023-05-14T19:20:53.964Z,76.47
2023-05-14T19:23:20.430Z,76.58
2023-05-14T19:25:46.944Z,75.83
2023-05-14T19:28:13.418Z,76.41
2023-05-14T19:30:39.908Z,78.36
2023-05-14T19:33:06.330Z,78.62
2023-05-14T19:35:32.852Z,77.97
2023-05-14T19:37:59.317Z,78.55
2023-05-14T19:40:25.851Z,79.72
2023-05-14T19:42:52.243Z,79.51
2023-05-14T19:45:18.640Z,79.29
2023-05-14T19:47:45.097Z,80.76
2023-05-14T19:50:11.757Z,81.58
2023-05-14T19:52:38.244Z,83.08
2023-05-14T19:55:05.088Z,84.14
2023-05-14T19:57:31.545Z,84.58
2023-05-14T19:59:58.129Z,85.28
2023-05-14T20:02:24.675Z,85.82
2023-05-14T20:04:51.595Z,86.15
2023-05-14T20:07:18.022Z,86.68
2023-05-14T20:09:44.483Z,87.55
2023-05-14T20:12:12.806Z,87.60
2023-05-14T20:14:48.020Z,88.25
2023-05-14T20:17:14.571Z,88.79
2023-05-14T20:19:43.712Z,89.56
2023-05-14T20:22:10.369Z,89.82
2023-05-14T20:24:36.811Z,90.78
2023-05-14T20:27:03.332Z,91.30
2023-05-14T20:29:29.935Z,91.05
2023-05-14T20:31:56.887Z,92.40
2023-05-14T20:34:23.344Z,94.27
2023-05-14T20:36:50.068Z,95.06
2023-05-14T20:39:16.696Z,96.54
2023-05-14T20:41:45.452Z,97.56
2023-05-14T20:44:11.872Z,97.52
2023-05-14T20:46:38.836Z,98.14
2023-05-14T20:49:05.423Z,96.76
2023-05-14T20:51:32.631Z,99.12
2023-05-14T20:53:59.085Z,99.27
2023-05-14T20:56:26.416Z,100.00
2023-05-14T20:58:52.815Z,99.61
2023-05-14T21:01:19.299Z,100.00
2023-05-14T21:03:45.839Z,100.00
2023-05-14T21:06:12.427Z,100.00
2023-05-14T21:08:40.366Z,100.00
2023-05-14T21:11:06.767Z,100.00
2023-05-14T21:13:33.156Z,100.00
2023-05-14T21:16:00.372Z,100.00
2023-05-14T21:18:30.585Z,100.00
2023-05-14T21:20:57.057Z,100.00
2023-05-14T21:23:23.553Z,100.00
2023-05-14T21:25:50.014Z,100.00
2023-05-14T21:28:16.414Z,100.00
2023-05-14T21:30:42.815Z,100.00
2023-05-14T21:33:09.328Z,100.00
2023-05-14T21:35:35.833Z,100.00
2023-05-14T21:38:02.293Z,100.00
2023-05-14T21:40:28.719Z,100.00
2023-05-14T21:42:55.524Z,100.00
2023-05-14T21:45:23.467Z,100.00
2023-05-14T21:47:50.564Z,100.00
2023-05-14T21:50:17.137Z,100.00
2023-05-14T21:52:43.517Z,100.00
2023-05-14T21:55:10.441Z,100.00
2023-05-14T21:57:36.941Z,100.00
2023-05-14T22:00:06.405Z,100.00
2023-05-14T22:02:32.883Z,100.00
2023-05-14T22:04:59.284Z,100.00
2023-05-14T22:07:26.063Z,100.00
2023-05-14T22:09:52.874Z,100.00
2023-05-14T22:12:19.377Z,100.00
2023-05-14T22:14:46.675Z,100.00
2023-05-14T22:17:13.108Z,100.00
2023-05-14T22:19:39.557Z,100.00
2023-05-14T22:22:05.981Z,100.00
2023-05-14T22:24:32.384Z,100.00
2023-05-14T22:26:58.831Z,100.00
2023-05-14T22:29:25.359Z,100.00
2023-05-14T22:31:54.664Z,100.00
2023-05-14T22:34:23.650Z,100.00
2023-05-14T22:36:50.269Z,100.00
2023-05-14T22:39:16.912Z,100.00
2023-05-14T22:41:43.596Z,100.00
2023-05-14T22:44:10.078Z,100.00
2023-05-14T22:46:36.836Z,100.00
2023-05-14T22:49:03.750Z,100.00
2023-05-14T22:51:30.546Z,100.00
2023-05-14T22:53:57.144Z,100.00
2023-05-14T22:56:24.069Z,100.00
2023-05-14T22:58:50.891Z,100.00
2023-05-14T23:01:17.594Z,100.00
2023-05-14T23:03:44.096Z,100.00
2023-05-14T23:06:13.928Z,100.00
2023-05-14T23:08:40.729Z,100.00
2023-05-14T23:11:07.162Z,100.00
2023-05-14T23:13:33.756Z,100.00
2023-05-14T23:16:00.237Z,100.00
2023-05-14T23:18:37.475Z,100.00
2023-05-14T23:21:04.461Z,100.00
2023-05-14T23:23:31.147Z,100.00
2023-05-14T23:25:57.626Z,100.00
2023-05-14T23:28:27.431Z,100.00
2023-05-14T23:30:57.008Z,100.00
2023-05-14T23:33:23.688Z,100.00
2023-05-14T23:35:50.348Z,100.00
2023-05-14T23:38:17.329Z,100.00
2023-05-14T23:40:43.993Z,100.00
2023-05-14T23:43:10.837Z,100.00
2023-05-14T23:45:37.589Z,100.00
2023-05-14T23:48:04.874Z,100.00
2023-05-14T23:50:31.676Z,100.00
2023-05-14T23:52:58.330Z,100.00
2023-05-14T23:55:25.414Z,100.00
2023-05-14T23:57:55.080Z,100.00
